Time;durP1;ratioP1;P1;durP2;ratioP2;P2;SDS_P1;SDS_P2;PMS_P1;PMS_P2;Temp;Humidity;BMP_temperature;BMP_pressure;BME280_temperature;BME280_humidity;BME280_pressure;Samples;Min_cycle;Max_cycle;Signal;HPM_P1;HPM_P2
2023/05/02 00:01:13;;;;;;;21.03;12.17;;;;;;;13.11;73.54;100092.16;5062275;28;20289;-73
2023/05/02 00:03:39;;;;;;;19.75;13.30;;;;;;;13.16;73.52;100086.66;5063038;28;20277;-73
2023/05/02 00:06:04;;;;;;;21.83;12.20;;;;;;;12.98;73.80;100084.50;5061760;28;20500;-74
2023/05/02 00:08:29;;;;;;;19.10;13.18;;;;;;;12.99;73.68;100088.84;5063131;28;20289;-74
2023/05/02 00:10:55;;;;;;;21.50;12.50;;;;;;;12.82;74.15;100081.72;5061190;28;20444;-74
2023/05/02 00:13:20;;;;;;;24.20;14.70;;;;;;;12.69;75.16;100094.84;5060958;28;20273;-73
2023/05/02 00:15:45;;;;;;;29.27;16.10;;;;;;;12.78;75.16;100094.31;5059897;28;20128;-73
2023/05/02 00:18:10;;;;;;;32.77;16.10;;;;;;;12.82;74.49;100096.22;5061775;28;20269;-73
2023/05/02 00:20:39;;;;;;;20.42;13.07;;;;;;;12.73;74.73;100095.94;5061145;28;20273;-74
2023/05/02 00:23:04;;;;;;;25.48;16.15;;;;;;;12.68;74.89;100093.19;5061457;28;20029;-72
2023/05/02 00:25:29;;;;;;;26.90;15.93;;;;;;;12.67;74.80;100098.94;5061786;28;20669;-72
2023/05/02 00:27:55;;;;;;;25.67;15.88;;;;;;;12.68;74.84;100104.16;5061455;28;20262;-72
2023/05/02 00:30:20;;;;;;;28.80;16.58;;;;;;;12.64;75.35;100107.69;5062526;28;20114;-72
2023/05/02 00:32:45;;;;;;;24.42;15.70;;;;;;;12.65;75.32;100107.41;5061914;28;20040;-72
2023/05/02 00:35:11;;;;;;;26.02;15.00;;;;;;;12.61;75.65;100103.56;5060621;28;20036;-72
2023/05/02 00:37:36;;;;;;;27.02;17.15;;;;;;;12.62;75.92;100116.16;5061364;28;20037;-72
2023/05/02 00:40:02;;;;;;;34.50;18.20;;;;;;;12.73;75.51;100109.63;5061356;28;20036;-73
2023/05/02 00:42:30;;;;;;;30.08;16.60;;;;;;;12.60;75.51;100115.63;5061618;28;20138;-72
2023/05/02 00:44:56;;;;;;;27.90;17.70;;;;;;;12.61;75.35;100122.72;5060486;28;20112;-73
2023/05/02 00:47:21;;;;;;;24.55;16.60;;;;;;;12.54;75.76;100119.44;5061965;28;20460;-72
2023/05/02 00:49:48;;;;;;;30.75;18.90;;;;;;;12.57;75.67;100124.38;5061361;28;20041;-72
2023/05/02 00:52:14;;;;;;;32.35;19.60;;;;;;;12.61;75.42;100126.28;5060903;28;20032;-72
2023/05/02 00:54:39;;;;;;;33.10;19.30;;;;;;;12.69;75.15;100127.66;5060707;28;20048;-72
2023/05/02 00:57:05;;;;;;;40.30;22.13;;;;;;;12.69;74.95;100122.19;5060979;28;20261;-73
2023/05/02 00:59:32;;;;;;;30.23;17.42;;;;;;;12.71;74.74;100125.47;5060896;28;20035;-72
2023/05/02 01:02:10;;;;;;;47.55;20.80;;;;;;;12.67;75.07;100120.84;5061506;28;20371;-73
2023/05/02 01:04:49;;;;;;;34.58;19.90;;;;;;;12.73;74.83;100117.81;5061820;28;20044;-73
2023/05/02 01:07:58;;;;;;;33.17;19.20;;;;;;;12.70;74.73;100115.63;5061785;28;20094;-73
2023/05/02 01:10:47;;;;;;;37.97;19.77;;;;;;;12.69;75.32;100121.38;5061219;28;20781;-72
2023/05/02 01:13:21;;;;;;;31.25;19.25;;;;;;;12.57;75.67;100129.84;5060847;28;20033;-73
2023/05/02 01:15:50;;;;;;;39.45;18.40;;;;;;;12.60;75.60;100130.13;5060307;28;20257;-73
2023/05/02 01:18:19;;;;;;;34.83;21.27;;;;;;;12.68;75.63;100131.50;5060469;28;20109;-73
2023/05/02 01:20:49;;;;;;;40.38;23.08;;;;;;;12.64;75.58;100124.94;5060263;28;20049;-73
2023/05/02 01:23:31;;;;;;;34.17;20.83;;;;;;;12.67;75.74;100129.84;5059424;28;20039;-73
2023/05/02 01:26:36;;;;;;;35.45;21.30;;;;;;;12.75;75.00;100130.44;5060215;28;20040;-73
2023/05/02 01:29:03;;;;;;;;;;;;;;;12.57;75.58;100143.50;5031498;28;20038;-73
2023/05/02 01:31:33;;;;;;;37.88;21.92;;;;;;;12.66;75.95;100133.69;5059872;28;19990;-72
2023/05/02 01:34:00;;;;;;;40.08;21.27;;;;;;;12.71;75.47;100139.16;5059127;28;20025;-73
2023/05/02 01:36:29;;;;;;;30.75;20.35;;;;;;;12.66;76.11;100144.63;5061204;28;20194;-73
2023/05/02 01:38:56;;;;;;;40.40;23.98;;;;;;;12.71;75.63;100141.88;5060635;28;20110;-73
2023/05/02 01:41:25;;;;;;;39.35;24.23;;;;;;;12.69;76.08;100141.34;5059590;28;20485;-73
2023/05/02 01:43:54;;;;;;;40.78;23.42;;;;;;;12.76;76.08;100137.53;5059300;28;20037;-73
2023/05/02 01:46:20;;;;;;;37.22;22.23;;;;;;;12.75;76.13;100141.38;5059180;28;20044;-74
2023/05/02 01:48:48;;;;;;;47.85;24.48;;;;;;;12.66;75.73;100147.34;5060121;28;20122;-72
2023/05/02 01:51:17;;;;;;;46.50;22.80;;;;;;;12.68;75.79;100144.34;5059916;28;20042;-73
2023/05/02 01:53:44;;;;;;;36.35;22.45;;;;;;;12.73;75.77;100145.19;5060595;28;20027;-72
2023/05/02 01:56:10;;;;;;;40.97;22.65;;;;;;;12.47;76.02;100163.41;5059663;28;20541;-72
2023/05/02 01:58:37;;;;;;;46.45;24.90;;;;;;;12.57;76.33;100163.47;5059788;28;20036;-72
2023/05/02 02:01:03;;;;;;;41.70;23.75;;;;;;;12.62;76.01;100159.94;5059784;28;20141;-73
2023/05/02 02:03:29;;;;;;;48.80;27.65;;;;;;;12.69;75.98;100170.63;5059863;28;20086;-72
2023/05/02 02:05:55;;;;;;;39.60;22.95;;;;;;;12.54;76.84;100179.59;5058791;28;20028;-73
2023/05/02 02:08:21;;;;;;;50.80;24.83;;;;;;;12.65;76.33;100175.78;5062919;28;20544;-73
2023/05/02 02:10:56;;;;;;;49.70;26.13;;;;;;;12.66;76.25;100176.63;5059187;28;20082;-72
2023/05/02 02:13:33;;;;;;;46.40;25.63;;;;;;;12.60;76.26;100184.00;5059133;28;20119;-72
2023/05/02 02:16:02;;;;;;;46.60;25.30;;;;;;;12.57;76.75;100190.00;5058575;28;20071;-73
2023/05/02 02:18:31;;;;;;;38.53;23.08;;;;;;;12.42;77.43;100185.28;5059230;28;20040;-73
2023/05/02 02:20:58;;;;;;;42.42;24.60;;;;;;;12.42;76.95;100188.84;5059905;28;20385;-73
2023/05/02 02:23:26;;;;;;;39.20;22.42;;;;;;;12.26;77.42;100194.22;5058835;28;20137;-73
2023/05/02 02:25:53;;;;;;;39.97;22.88;;;;;;;12.32;77.80;100199.75;5059121;28;20037;-73
2023/05/02 02:28:18;;;;;;;41.08;23.38;;;;;;;12.28;77.43;100199.44;5059155;28;20452;-73
2023/05/02 02:30:43;;;;;;;40.30;19.40;;;;;;;12.26;77.88;100205.16;5060071;28;20033;-73
2023/05/02 02:33:09;;;;;;;41.83;22.73;;;;;;;12.29;77.16;100205.72;5059869;28;20040;-73
2023/05/02 02:35:42;;;;;;;40.95;22.52;;;;;;;12.16;77.28;100212.50;5058745;28;20113;-72
2023/05/02 02:38:15;;;;;;;45.05;24.15;;;;;;;12.14;77.74;100204.56;5058009;28;20036;-72
2023/05/02 02:40:48;;;;;;;39.88;24.52;;;;;;;12.26;77.82;100212.56;5059467;28;20115;-72
2023/05/02 02:43:24;;;;;;;52.25;24.60;;;;;;;12.32;77.62;100207.94;5059490;28;20121;-73
2023/05/02 02:46:13;;;;;;;37.70;20.67;;;;;;;12.42;77.41;100213.47;5059089;28;20041;-73
2023/05/02 02:48:57;;;;;;;40.95;21.85;;;;;;;12.40;76.77;100207.44;5060198;28;20023;-72
2023/05/02 02:51:37;;;;;;;40.35;21.10;;;;;;;12.43;76.64;100217.00;5059743;28;20037;-72
2023/05/02 02:54:19;;;;;;;38.63;19.73;;;;;;;12.44;77.06;100208.56;5059811;28;20025;-72
2023/05/02 02:56:46;;;;;;;40.80;21.33;;;;;;;12.44;77.08;100219.50;5060480;28;20439;-73
2023/05/02 02:59:18;;;;;;;38.35;20.27;;;;;;;12.42;77.28;100220.84;5063490;28;20148;-72
2023/05/02 03:01:49;;;;;;;47.35;24.38;;;;;;;12.41;77.06;100217.28;5063255;28;20039;-72
2023/05/02 03:04:18;;;;;;;41.33;20.92;;;;;;;12.34;77.44;100217.53;5061162;28;20520;-72
2023/05/02 03:06:43;;;;;;;34.92;17.95;;;;;;;12.32;77.63;100222.44;5063153;28;20414;-72
2023/05/02 03:09:18;;;;;;;40.65;21.25;;;;;;;12.36;77.57;100231.75;5062442;28;20060;-72
2023/05/02 03:11:45;;;;;;;36.22;20.02;;;;;;;12.26;77.84;100229.75;5063616;28;20075;-73
2023/05/02 03:14:10;;;;;;;34.05;18.77;;;;;;;12.30;77.70;100230.09;5062651;28;20036;-72
2023/05/02 03:16:38;;;;;;;40.92;18.77;;;;;;;12.22;78.29;100236.88;5063654;28;20494;-72
2023/05/02 03:19:04;;;;;;;32.20;17.95;;;;;;;12.24;78.08;100231.13;5062737;28;20052;-72
2023/05/02 03:21:32;;;;;;;26.60;16.05;;;;;;;12.34;77.88;100244.03;5063035;28;20118;-72
2023/05/02 03:24:02;;;;;;;35.58;19.10;;;;;;;12.32;77.68;100243.47;5062205;28;20386;-72
2023/05/02 03:26:28;;;;;;;34.80;17.23;;;;;;;12.32;78.29;100232.53;5061655;28;20408;-71
2023/05/02 03:28:55;;;;;;;35.15;17.80;;;;;;;12.27;78.18;100236.06;5063155;28;20028;-72
2023/05/02 03:31:20;;;;;;;25.65;14.60;;;;;;;12.20;78.64;100235.50;5062623;28;20039;-72
2023/05/02 03:33:46;;;;;;;22.77;14.15;;;;;;;12.26;78.19;100250.84;5062305;28;20028;-72
2023/05/02 03:36:11;;;;;;;29.52;15.50;;;;;;;12.31;77.97;100252.75;5062966;28;20032;-72
2023/05/02 03:38:37;;;;;;;29.05;15.50;;;;;;;12.30;78.46;100248.38;5062517;28;20078;-72
2023/05/02 03:41:02;;;;;;;26.47;13.50;;;;;;;12.23;78.36;100254.06;5061898;28;20041;-72
2023/05/02 03:43:28;;;;;;;27.17;14.23;;;;;;;12.19;78.31;100256.53;5062107;28;20278;-72
2023/05/02 03:45:54;;;;;;;27.65;12.02;;;;;;;12.32;77.94;100259.88;5061816;28;20041;-72
2023/05/02 03:48:19;;;;;;;23.05;13.52;;;;;;;12.20;77.84;100263.66;5062565;28;20036;-75
2023/05/02 03:50:44;;;;;;;19.58;10.60;;;;;;;12.22;77.61;100257.91;5063366;28;20086;-74
2023/05/02 03:53:10;;;;;;;25.03;14.40;;;;;;;12.20;77.66;100258.19;5062246;28;20586;-75
2023/05/02 03:55:39;;;;;;;22.52;11.75;;;;;;;12.20;77.60;100262.81;5062752;28;20297;-74
2023/05/02 03:58:05;;;;;;;22.65;11.90;;;;;;;12.25;77.18;100260.94;5064395;28;20738;-74
2023/05/02 04:00:30;;;;;;;24.00;14.15;;;;;;;12.19;77.27;100264.72;5061889;28;20044;-74
2023/05/02 04:02:56;;;;;;;21.30;12.07;;;;;;;12.23;77.44;100268.56;5062430;28;20812;-74
2023/05/02 04:05:21;;;;;;;27.80;14.03;;;;;;;12.18;77.54;100263.09;5059747;28;20261;-74
2023/05/02 04:07:46;;;;;;;26.43;13.90;;;;;;;12.26;76.95;100267.25;5062691;28;20272;-74
2023/05/02 04:10:15;;;;;;;21.42;11.02;;;;;;;12.24;76.95;100266.69;5060904;28;20289;-74
2023/05/02 04:12:41;;;;;;;29.02;13.00;;;;;;;12.20;77.25;100274.59;5062393;28;20043;-74
2023/05/02 04:15:06;;;;;;;23.60;11.00;;;;;;;12.10;77.31;100278.00;5060896;28;20044;-74
2023/05/02 04:17:32;;;;;;;22.20;12.05;;;;;;;12.10;77.46;100274.47;5061011;28;20040;-74
2023/05/02 04:19:57;;;;;;;24.17;12.33;;;;;;;12.21;77.32;100276.22;5060292;28;20028;-74
2023/05/02 04:22:22;;;;;;;33.00;13.03;;;;;;;12.22;77.17;100282.53;5061407;28;20274;-74
2023/05/02 04:24:47;;;;;;;20.80;11.17;;;;;;;12.12;77.53;100277.81;5061530;28;20352;-74
2023/05/02 04:27:13;;;;;;;26.57;12.63;;;;;;;12.20;77.66;100280.06;5060681;28;20372;-74
2023/05/02 04:29:38;;;;;;;21.53;10.73;;;;;;;12.28;76.98;100286.09;5061634;28;20266;-74
2023/05/02 04:32:03;;;;;;;24.07;12.03;;;;;;;12.31;76.91;100293.75;5061789;28;21005;-74
2023/05/02 04:34:29;;;;;;;23.00;12.02;;;;;;;12.34;77.03;100290.50;5061432;28;20382;-74
2023/05/02 04:36:54;;;;;;;19.17;10.52;;;;;;;12.33;77.06;100300.63;5061033;28;20127;-74
2023/05/02 04:39:19;;;;;;;20.03;12.40;;;;;;;12.36;77.23;100300.13;5060975;28;20599;-74
2023/05/02 04:41:45;;;;;;;25.90;13.20;;;;;;;12.30;78.07;100301.16;5061635;28;20273;-74
2023/05/02 04:44:11;;;;;;;23.33;11.90;;;;;;;12.22;78.29;100305.22;5060371;28;20279;-74
2023/05/02 04:46:36;;;;;;;19.53;10.87;;;;;;;12.23;78.93;100306.03;5060689;28;20033;-74
2023/05/02 04:49:01;;;;;;;23.58;10.20;;;;;;;12.25;78.68;100307.41;5060800;28;20969;-74
2023/05/02 04:51:28;;;;;;;23.20;11.57;;;;;;;12.25;78.62;100315.63;5061697;28;20150;-74
2023/05/02 04:53:53;;;;;;;25.17;10.93;;;;;;;12.21;79.02;100314.50;5060198;28;20282;-74
2023/05/02 04:56:18;;;;;;;23.13;11.55;;;;;;;12.21;79.35;100306.28;5060743;28;20154;-74
2023/05/02 04:58:43;;;;;;;16.77;8.40;;;;;;;12.14;79.51;100319.38;5060166;28;20043;-74
2023/05/02 05:01:09;;;;;;;17.53;9.27;;;;;;;12.15;79.42;100321.00;5061650;28;20253;-75
2023/05/02 05:03:34;;;;;;;19.13;8.25;;;;;;;11.91;81.02;100324.06;5060433;28;20289;-74
2023/05/02 05:06:01;;;;;;;23.23;10.13;;;;;;;12.01;80.92;100331.53;5060525;28;20119;-74
2023/05/02 05:08:26;;;;;;;25.65;11.70;;;;;;;11.97;81.27;100336.69;5060385;28;20270;-74
2023/05/02 05:10:51;;;;;;;24.67;11.13;;;;;;;12.00;81.24;100336.16;5060784;28;21271;-74
2023/05/02 05:13:16;;;;;;;21.85;10.77;;;;;;;12.15;81.06;100342.88;5060729;28;20287;-75
2023/05/02 05:15:43;;;;;;;23.30;10.20;;;;;;;12.13;80.88;100336.84;5060203;28;20036;-75
2023/05/02 05:18:08;;;;;;;26.73;11.38;;;;;;;12.16;81.11;100350.00;5060414;28;20329;-75
2023/05/02 05:20:33;;;;;;;33.97;14.23;;;;;;;12.11;81.58;100355.41;5059226;28;20025;-74
2023/05/02 05:22:58;;;;;;;21.73;9.95;;;;;;;11.96;81.64;100356.88;5060682;28;20296;-75
2023/05/02 05:25:27;;;;;;;27.10;12.37;;;;;;;12.01;82.06;100364.31;5060843;28;20044;-75
2023/05/02 05:27:54;;;;;;;28.60;11.60;;;;;;;12.00;82.59;100363.47;5061402;28;20892;-74
2023/05/02 05:30:19;;;;;;;20.58;10.90;;;;;;;12.08;82.19;100364.09;5060628;28;20027;-72
2023/05/02 05:32:44;;;;;;;23.33;11.25;;;;;;;12.03;82.82;100373.06;5060141;28;20033;-72
2023/05/02 05:35:10;;;;;;;24.70;11.63;;;;;;;12.07;82.84;100373.38;5060442;28;20169;-72
2023/05/02 05:37:38;;;;;;;24.02;11.45;;;;;;;12.12;82.88;100371.53;5059820;28;20265;-72
2023/05/02 05:40:07;;;;;;;24.45;14.38;;;;;;;12.10;82.99;100376.41;5060688;28;20029;-72
2023/05/02 05:42:32;;;;;;;26.58;12.10;;;;;;;12.08;83.23;100381.31;5060608;28;20048;-72
2023/05/02 05:44:57;;;;;;;20.13;8.90;;;;;;;12.17;82.40;100389.06;5059581;28;20036;-72
2023/05/02 05:47:23;;;;;;;11.93;6.90;;;;;;;12.01;82.58;100386.16;5060222;28;20333;-72
2023/05/02 05:49:52;;;;;;;20.30;8.80;;;;;;;11.90;83.44;100398.91;5059434;28;20996;-72
2023/05/02 05:52:18;;;;;;;13.93;7.65;;;;;;;12.04;82.52;100391.09;5060468;28;20356;-73
2023/05/02 05:54:43;;;;;;;14.85;6.55;;;;;;;11.76;82.65;100393.88;5060487;28;20123;-72
2023/05/02 05:57:08;;;;;;;40.15;6.68;;;;;;;11.84;83.07;100408.16;5059968;28;20075;-73
2023/05/02 05:59:35;;;;;;;14.77;5.37;;;;;;;11.89;82.01;100400.84;5058823;28;20043;-71
2023/05/02 06:02:00;;;;;;;11.25;5.57;;;;;;;11.94;81.60;100402.78;5059525;28;20252;-73
2023/05/02 06:04:25;;;;;;;11.10;4.10;;;;;;;11.89;81.39;100417.22;5059337;28;20036;-72
2023/05/02 06:06:52;;;;;;;11.87;6.13;;;;;;;11.84;81.86;100424.56;5058837;28;20257;-72
2023/05/02 06:09:18;;;;;;;11.20;4.78;;;;;;;11.87;82.09;100432.22;5059235;28;20316;-71
2023/05/02 06:11:43;;;;;;;11.32;4.10;;;;;;;11.88;81.80;100428.38;5060137;28;20108;-72
2023/05/02 06:14:09;;;;;;;7.82;3.80;;;;;;;11.86;81.93;100425.09;5058651;28;20037;-73
2023/05/02 06:16:34;;;;;;;14.07;5.43;;;;;;;11.79;82.22;100434.34;5060504;28;20036;-73
2023/05/02 06:18:59;;;;;;;11.23;5.25;;;;;;;11.65;82.32;100433.09;5058084;28;20036;-73
2023/05/02 06:21:25;;;;;;;10.93;5.43;;;;;;;11.67;82.18;100434.44;5059816;28;20028;-73
2023/05/02 06:23:51;;;;;;;13.05;5.75;;;;;;;11.77;81.23;100446.59;5059822;28;20269;-73
2023/05/02 06:26:16;;;;;;;14.80;5.85;;;;;;;11.66;81.43;100446.47;5059165;28;20115;-74
2023/05/02 06:28:41;;;;;;;11.67;5.53;;;;;;;11.71;81.40;100445.72;5059893;28;20067;-73
2023/05/02 06:31:06;;;;;;;11.87;4.97;;;;;;;11.83;81.10;100450.19;5058403;28;20261;-73
2023/05/02 06:33:32;;;;;;;11.88;5.78;;;;;;;11.86;80.67;100455.97;5058857;28;20256;-74
2023/05/02 06:35:58;;;;;;;9.15;4.65;;;;;;;11.77;80.64;100455.63;5059582;28;20068;-75
2023/05/02 06:38:24;;;;;;;11.13;4.13;;;;;;;11.92;79.93;100456.84;5058446;28;20151;-73
2023/05/02 06:40:50;;;;;;;14.88;6.38;;;;;;;11.94;80.36;100462.88;5058778;28;20032;-74
2023/05/02 06:43:15;;;;;;;10.13;5.05;;;;;;;11.97;79.84;100459.66;5059802;28;20033;-74
2023/05/02 06:45:41;;;;;;;13.35;5.15;;;;;;;11.94;80.28;100465.63;5058864;28;20106;-74
2023/05/02 06:48:06;;;;;;;8.50;3.58;;;;;;;11.98;79.72;100468.69;5058402;28;20040;-74
2023/05/02 06:50:32;;;;;;;13.10;4.43;;;;;;;12.02;79.94;100476.09;5058345;28;20029;-73
2023/05/02 06:52:58;;;;;;;10.23;4.53;;;;;;;11.87;79.54;100482.22;5058841;28;20032;-74
2023/05/02 06:55:23;;;;;;;9.95;4.40;;;;;;;11.99;79.37;100476.63;5056986;28;20758;-73
2023/05/02 06:57:49;;;;;;;10.82;3.60;;;;;;;12.14;79.18;100484.16;5059170;28;20490;-73
2023/05/02 07:00:15;;;;;;;11.60;4.00;;;;;;;12.16;79.65;100494.88;5057440;28;20029;-74
2023/05/02 07:02:41;;;;;;;9.15;4.05;;;;;;;12.33;78.62;100496.66;5058172;28;20032;-73
2023/05/02 07:05:06;;;;;;;8.48;3.85;;;;;;;12.34;78.90;100495.56;5058201;28;20588;-74
2023/05/02 07:07:32;;;;;;;11.57;4.40;;;;;;;12.38;79.13;100496.72;5058136;28;20068;-73
2023/05/02 07:09:57;;;;;;;14.53;4.43;;;;;;;12.41;78.44;100507.13;5058417;28;20051;-75
2023/05/02 07:12:22;;;;;;;10.53;3.47;;;;;;;12.39;77.53;100512.03;5059456;28;20262;-75
2023/05/02 07:14:48;;;;;;;10.07;4.65;;;;;;;12.41;77.84;100514.50;5058630;28;20285;-72
2023/05/02 07:17:14;;;;;;;7.63;3.70;;;;;;;12.45;76.96;100519.19;5059259;28;20071;-74
2023/05/02 07:19:39;;;;;;;9.15;4.07;;;;;;;12.44;77.26;100519.47;5059333;28;20086;-74
2023/05/02 07:22:05;;;;;;;14.43;4.65;;;;;;;12.43;77.00;100524.09;5057252;28;20040;-75
2023/05/02 07:24:30;;;;;;;8.20;3.17;;;;;;;12.26;75.87;100526.94;5088065;28;20059;-74
2023/05/02 07:26:56;;;;;;;12.67;3.07;;;;;;;12.12;75.83;100534.72;5088615;28;20123;-75
2023/05/02 07:29:21;;;;;;;11.23;4.40;;;;;;;12.11;76.85;100539.34;5059031;28;20347;-73
2023/05/02 07:31:46;;;;;;;10.17;4.97;;;;;;;12.16;76.89;100535.88;5058685;28;20273;-74
2023/05/02 07:34:11;;;;;;;6.07;3.27;;;;;;;12.19;76.27;100543.53;5059261;28;20988;-74
2023/05/02 07:36:38;;;;;;;11.80;3.70;;;;;;;12.11;76.55;100544.81;5058879;28;20279;-74
2023/05/02 07:39:03;;;;;;;10.43;4.15;;;;;;;12.07;76.96;100548.28;5059292;28;20357;-74
2023/05/02 07:41:28;;;;;;;18.05;4.88;;;;;;;12.11;76.39;100547.56;5059259;28;20049;-74
2023/05/02 07:43:54;;;;;;;7.57;3.72;;;;;;;12.13;76.38;100545.41;5059473;28;20109;-74
2023/05/02 07:46:20;;;;;;;6.50;2.65;;;;;;;12.10;76.92;100547.78;5063509;28;20116;-75
2023/05/02 07:48:45;;;;;;;7.85;3.50;;;;;;;12.14;76.98;100548.97;5062599;28;20044;-74
2023/05/02 07:51:11;;;;;;;8.63;3.93;;;;;;;12.12;76.33;100556.59;5062720;28;20042;-74
2023/05/02 07:53:36;;;;;;;5.35;2.53;;;;;;;12.08;75.67;100558.16;5062024;28;20280;-75
2023/05/02 07:56:05;;;;;;;13.03;3.47;;;;;;;12.10;75.70;100561.47;5063444;28;20630;-74
2023/05/02 07:58:31;;;;;;;9.30;3.58;;;;;;;11.96;75.58;100564.56;5061978;28;20277;-73
2023/05/02 08:00:56;;;;;;;8.13;2.78;;;;;;;11.78;76.33;100563.81;5060759;28;20029;-73
2023/05/02 08:03:22;;;;;;;6.53;2.97;;;;;;;11.76;77.41;100570.59;5061846;28;20044;-74
2023/05/02 08:05:47;;;;;;;9.98;3.53;;;;;;;11.69;78.11;100573.53;5062252;28;20120;-74
2023/05/02 08:08:12;;;;;;;14.50;4.38;;;;;;;11.77;77.41;100584.00;5062772;28;20056;-74
2023/05/02 08:10:37;;;;;;;7.13;2.80;;;;;;;11.57;78.55;100584.56;5062674;28;20037;-75
2023/05/02 08:13:03;;;;;;;8.47;3.40;;;;;;;11.66;77.86;100587.66;5061653;28;20321;-75
2023/05/02 08:15:29;;;;;;;7.50;2.72;;;;;;;11.55;77.74;100601.19;5062339;28;20278;-75
2023/05/02 08:17:54;;;;;;;60.78;7.63;;;;;;;11.37;79.63;100601.47;5061803;28;20122;-75
2023/05/02 08:20:21;;;;;;;6.28;2.33;;;;;;;11.31;79.53;100600.53;5061706;28;20131;-74
2023/05/02 08:22:46;;;;;;;4.47;1.40;;;;;;;11.29;79.01;100611.72;5062085;28;20048;-75
2023/05/02 08:25:11;;;;;;;7.07;2.22;;;;;;;11.38;78.71;100614.03;5061558;28;20044;-74
2023/05/02 08:27:36;;;;;;;5.32;1.80;;;;;;;11.29;78.25;100619.91;5062018;28;20029;-75
2023/05/02 08:30:02;;;;;;;6.30;1.10;;;;;;;11.25;78.65;100621.47;5059661;28;20124;-73
2023/05/02 08:32:28;;;;;;;3.53;1.48;;;;;;;10.75;78.99;100618.47;5062094;28;20666;-74
2023/05/02 08:34:55;;;;;;;4.40;1.80;;;;;;;10.79;79.20;100630.53;5062680;28;20809;-74
2023/05/02 08:37:21;;;;;;;7.70;2.20;;;;;;;10.59;79.21;100648.19;5060556;28;20040;-74
2023/05/02 08:39:46;;;;;;;6.70;2.22;;;;;;;10.86;79.34;100641.31;5062322;28;20053;-75
2023/05/02 08:42:11;;;;;;;8.18;2.85;;;;;;;10.84;78.60;100648.91;5061854;28;20054;-74
2023/05/02 08:44:37;;;;;;;6.60;2.15;;;;;;;10.82;78.49;100645.59;5060786;28;20055;-74
2023/05/02 08:47:03;;;;;;;5.40;2.45;;;;;;;10.81;77.66;100650.22;5062112;28;20040;-75
2023/05/02 08:49:30;;;;;;;4.78;2.25;;;;;;;11.01;77.60;100659.84;5061587;28;20079;-76
2023/05/02 08:51:58;;;;;;;38.72;23.98;;;;;;;11.12;78.12;100666.31;5062090;28;20039;-75
2023/05/02 08:54:25;;;;;;;18.75;9.07;;;;;;;11.24;77.28;100671.69;5060607;28;20056;-74
2023/05/02 08:56:52;;;;;;;13.23;6.40;;;;;;;11.26;75.98;100675.00;5061339;28;20482;-75
2023/05/02 08:59:18;;;;;;;7.40;2.25;;;;;;;11.29;75.77;100674.50;5061378;28;20546;-74
2023/05/02 09:01:45;;;;;;;6.15;2.40;;;;;;;11.27;75.81;100682.09;5059984;28;20064;-74
2023/05/02 09:04:10;;;;;;;7.00;1.95;;;;;;;11.27;76.16;100690.28;5058430;28;20078;-74
2023/05/02 09:06:36;;;;;;;10.32;3.92;;;;;;;11.32;75.02;100695.84;5062243;28;20028;-74
2023/05/02 09:09:02;;;;;;;5.75;2.55;;;;;;;10.82;76.36;100695.50;5060842;28;20110;-74
2023/05/02 09:11:28;;;;;;;6.55;2.67;;;;;;;11.09;76.69;100694.06;5062876;28;20033;-74
2023/05/02 09:13:53;;;;;;;6.80;3.40;;;;;;;11.18;75.20;100708.16;5059331;28;20072;-74
2023/05/02 09:16:24;;;;;;;10.50;2.80;;;;;;;11.26;74.74;100710.50;5061676;28;20032;-74
2023/05/02 09:18:53;;;;;;;7.75;2.67;;;;;;;11.30;75.03;100708.94;5060884;28;20063;-74
2023/05/02 09:21:22;;;;;;;8.77;3.55;;;;;;;11.30;74.97;100711.66;5061799;28;20033;-74
2023/05/02 09:23:53;;;;;;;11.00;3.33;;;;;;;11.29;75.74;100720.91;5060596;28;20109;-74
2023/05/02 09:26:23;;;;;;;6.80;2.63;;;;;;;11.41;75.94;100714.56;5062078;28;20040;-73
2023/05/02 09:28:53;;;;;;;9.02;2.80;;;;;;;11.50;74.43;100707.63;5060660;28;20571;-75
2023/05/02 09:31:21;;;;;;;9.07;3.40;;;;;;;11.54;74.94;100716.13;5060064;28;20097;-74
2023/05/02 09:33:48;;;;;;;87.20;49.22;;;;;;;11.41;75.06;100717.31;5060317;28;20075;-73
2023/05/02 09:36:15;;;;;;;19.67;10.27;;;;;;;11.44;74.72;100714.91;5061154;28;20044;-72
2023/05/02 09:38:46;;;;;;;8.18;2.88;;;;;;;11.35;74.38;100726.47;5061052;28;20044;-74
2023/05/02 09:41:12;;;;;;;9.32;3.47;;;;;;;11.36;75.93;100722.66;5061261;28;20056;-74
2023/05/02 09:43:38;;;;;;;7.57;2.83;;;;;;;11.28;75.81;100735.66;5061381;28;20040;-74
2023/05/02 09:46:09;;;;;;;7.47;3.88;;;;;;;10.98;76.31;100742.19;5059458;28;20525;-73
2023/05/02 09:48:54;;;;;;;8.23;2.63;;;;;;;11.03;76.00;100738.72;5061036;28;20044;-74
2023/05/02 09:51:21;;;;;;;8.93;2.40;;;;;;;10.86;76.33;100745.78;5061033;28;20040;-74
2023/05/02 09:53:47;;;;;;;8.27;2.33;;;;;;;10.86;76.04;100751.22;5059774;28;20043;-73
2023/05/02 09:56:12;;;;;;;6.85;3.05;;;;;;;10.70;77.23;100757.47;5059792;28;20044;-73
2023/05/02 09:58:38;;;;;;;11.07;3.95;;;;;;;10.72;77.09;100767.03;5060264;28;20044;-73
2023/05/02 10:01:03;;;;;;;7.13;2.97;;;;;;;10.76;76.43;100766.59;5060131;28;20040;-74
2023/05/02 10:03:30;;;;;;;7.30;2.70;;;;;;;10.51;75.47;100771.25;5060547;28;20050;-74
2023/05/02 10:05:56;;;;;;;8.43;2.05;;;;;;;10.83;75.70;100767.25;5057167;28;20095;-73
2023/05/02 10:08:26;;;;;;;5.40;1.80;;;;;;;10.98;74.89;100767.56;5059860;28;20136;-74
2023/05/02 10:10:53;;;;;;;5.28;1.45;;;;;;;11.07;74.93;100778.94;5060405;28;20036;-73
2023/05/02 10:13:21;;;;;;;10.35;3.33;;;;;;;11.14;74.49;100780.69;5060186;28;20407;-73
2023/05/02 10:15:57;;;;;;;10.07;2.58;;;;;;;11.10;73.67;100777.63;5057398;28;20036;-73
2023/05/02 10:18:43;;;;;;;5.90;2.58;;;;;;;11.36;73.57;100778.09;5059691;28;20045;-73
2023/05/02 10:21:11;;;;;;;5.00;2.25;;;;;;;11.13;72.45;100774.38;5058108;28;20495;-74
2023/05/02 10:23:41;;;;;;;6.45;2.60;;;;;;;11.24;72.53;100777.31;5059036;28;20132;-74
2023/05/02 10:26:07;;;;;;;5.95;2.60;;;;;;;11.13;71.88;100781.75;5059505;28;20053;-73
2023/05/02 10:28:33;;;;;;;9.15;3.17;;;;;;;11.12;71.29;100783.66;5061248;28;20570;-74
2023/05/02 10:31:01;;;;;;;8.25;3.13;;;;;;;11.36;70.97;100783.56;5060138;28;20036;-76
2023/05/02 10:33:27;;;;;;;5.15;2.42;;;;;;;11.55;70.82;100777.88;5058064;28;20131;-74
2023/05/02 10:35:52;;;;;;;6.60;2.95;;;;;;;11.64;70.71;100775.56;5059843;28;20542;-74
2023/05/02 10:38:20;;;;;;;13.60;2.92;;;;;;;11.81;70.00;100777.47;5059960;28;20120;-74
2023/05/02 10:40:56;;;;;;;8.13;3.63;;;;;;;11.72;68.67;100777.88;5060489;28;20067;-74
2023/05/02 10:43:29;;;;;;;8.13;4.15;;;;;;;11.85;69.22;100776.72;5060714;28;20045;-74
2023/05/02 10:45:55;;;;;;;7.85;3.42;;;;;;;12.01;69.85;100769.59;5059655;28;20036;-74
2023/05/02 10:48:23;;;;;;;10.40;3.95;;;;;;;12.18;68.93;100779.72;5061545;28;20070;-85
2023/05/02 10:50:54;;;;;;;6.70;3.40;;;;;;;12.37;67.67;100777.53;5060860;28;20039;-86
2023/05/02 10:53:35;;;;;;;10.05;3.88;;;;;;;12.38;69.00;100770.16;5060922;28;20052;-85
2023/05/02 10:56:19;;;;;;;13.30;4.75;;;;;;;12.37;67.68;100766.59;5061780;28;20037;-85
2023/05/02 10:58:47;;;;;;;13.95;4.70;;;;;;;12.71;66.68;100768.38;5060207;28;20044;-74
2023/05/02 11:01:28;;;;;;;8.85;4.20;;;;;;;12.64;66.10;100770.50;5060304;28;20117;-75
2023/05/02 11:04:03;;;;;;;12.68;5.68;;;;;;;12.34;65.74;100767.09;5059269;28;20501;-75
2023/05/02 11:06:33;;;;;;;14.68;4.95;;;;;;;12.53;66.52;100774.19;5060794;28;20024;-74
2023/05/02 11:09:22;;;;;;;11.77;4.22;;;;;;;12.86;64.24;100771.56;5059482;28;20083;-75
2023/05/02 11:11:49;;;;;;;10.82;5.25;;;;;;;12.93;63.58;100762.09;5059067;28;20032;-74
2023/05/02 11:14:29;;;;;;;12.73;5.80;;;;;;;12.96;63.69;100763.47;5057570;28;20047;-75
2023/05/02 11:16:58;;;;;;;15.80;6.10;;;;;;;12.96;63.60;100769.78;5059241;28;20122;-74